Time;durP1;ratioP1;P1;durP2;ratioP2;P2;SDS_P1;SDS_P2;PMS_P1;PMS_P2;Temp;Humidity;BMP_temperature;BMP_pressure;BME280_temperature;BME280_humidity;BME280_pressure;Samples;Min_cycle;Max_cycle;Signal;HPM_P1;HPM_P2
2021/09/04 00:00:46;;;;;;;20.60;9.47;;;20.80;99.90;;;;;;4954609;28;21446;-72
2021/09/04 00:03:14;;;;;;;24.13;11.17;;;20.80;99.90;;;;;;4963831;28;20191;-72
2021/09/04 00:05:41;;;;;;;25.20;8.97;;;20.80;99.90;;;;;;4969117;28;20624;-70
2021/09/04 00:08:09;;;;;;;20.73;10.10;;;20.80;99.80;;;;;;4947046;28;20678;-70
2021/09/04 00:10:36;;;;;;;25.43;11.90;;;21.00;99.50;;;;;;4951009;28;20192;-70
2021/09/04 00:13:03;;;;;;;25.90;10.13;;;21.00;99.70;;;;;;4945671;28;20552;-68
2021/09/04 00:15:31;;;;;;;28.53;11.20;;;21.10;99.50;;;;;;4954799;28;20187;-71
2021/09/04 00:17:58;;;;;;;22.83;9.73;;;21.10;99.30;;;;;;4956033;28;20194;-70
2021/09/04 00:20:26;;;;;;;537.40;186.90;;;21.10;99.20;;;;;;4953021;28;20194;-72
2021/09/04 00:22:53;;;;;;;10.00;5.63;;;21.20;99.40;;;;;;4948481;28;20427;-70
2021/09/04 00:25:20;;;;;;;22.57;9.70;;;21.30;99.40;;;;;;4944635;28;20191;-73
2021/09/04 00:27:48;;;;;;;18.47;8.10;;;21.30;99.30;;;;;;4951525;28;20283;-69
2021/09/04 00:30:16;;;;;;;47.30;13.37;;;21.40;99.20;;;;;;4956993;28;20241;-71
2021/09/04 00:32:43;;;;;;;25.63;12.37;;;21.20;98.80;;;;;;4958004;28;20207;-71
2021/09/04 00:35:11;;;;;;;24.50;9.90;;;21.30;99.30;;;;;;4966003;28;20179;-69
2021/09/04 00:37:39;;;;;;;583.90;198.47;;;21.30;99.00;;;;;;4962191;28;20179;-69
2021/09/04 00:40:07;;;;;;;572.63;196.70;;;21.30;99.10;;;;;;4952019;28;20433;-73
2021/09/04 00:42:34;;;;;;;41.27;14.50;;;21.50;98.90;;;;;;4962768;28;20481;-70
2021/09/04 00:45:02;;;;;;;21.07;9.57;;;21.50;98.50;;;;;;4962013;28;20274;-71
2021/09/04 00:47:30;;;;;;;26.80;9.80;;;21.50;99.00;;;;;;4961655;28;20199;-70
2021/09/04 00:49:57;;;;;;;512.40;182.73;;;21.40;98.70;;;;;;4967617;28;20183;-69
2021/09/04 00:52:24;;;;;;;334.67;117.07;;;21.40;98.60;;;;;;4975522;28;20419;-70
2021/09/04 00:54:52;;;;;;;10.23;5.80;;;21.30;98.80;;;;;;4956078;28;20650;-69
2021/09/04 00:57:20;;;;;;;319.17;115.03;;;21.30;99.00;;;;;;4968344;28;20187;-71
2021/09/04 00:59:47;;;;;;;175.73;60.33;;;21.30;98.90;;;;;;4948916;29;20188;-70
2021/09/04 01:02:28;;;;;;;26.30;8.70;;;21.40;98.90;;;;;;5090512;27;20560;-72
2021/09/04 01:04:55;;;;;;;325.60;115.23;;;21.30;98.90;;;;;;5071777;28;20642;-70
2021/09/04 01:07:23;;;;;;;539.23;194.43;;;21.40;98.70;;;;;;5087413;28;20476;-69
2021/09/04 01:09:50;;;;;;;32.07;12.43;;;21.50;98.90;;;;;;5073684;28;20926;-69
2021/09/04 01:12:18;;;;;;;10.33;6.40;;;21.50;98.70;;;;;;5084438;28;20206;-68
2021/09/04 01:14:45;;;;;;;24.07;11.90;;;21.60;98.90;;;;;;5088071;28;20175;-70
2021/09/04 01:17:12;;;;;;;25.70;9.63;;;21.70;98.40;;;;;;5084825;28;20583;-70
2021/09/04 01:19:40;;;;;;;18.53;8.47;;;21.70;98.40;;;;;;5088164;28;20181;-68
2021/09/04 01:22:08;;;;;;;33.60;11.07;;;21.70;98.40;;;;;;5080195;28;20227;-69
2021/09/04 01:24:36;;;;;;;25.53;10.87;;;21.90;98.50;;;;;;5074015;28;20259;-70
2021/09/04 01:27:03;;;;;;;357.83;120.57;;;21.90;98.30;;;;;;5080073;28;20210;-74
2021/09/04 01:29:30;;;;;;;26.47;9.13;;;21.80;98.50;;;;;;5089850;28;20186;-71
2021/09/04 01:31:58;;;;;;;26.53;11.13;;;21.90;98.40;;;;;;5083038;28;20211;-70
2021/09/04 01:34:26;;;;;;;24.37;9.27;;;21.90;98.40;;;;;;5078965;28;20213;-68
2021/09/04 01:36:53;;;;;;;21.23;9.17;;;22.00;98.20;;;;;;5070760;28;20205;-70
2021/09/04 01:39:21;;;;;;;24.80;9.50;;;22.10;98.10;;;;;;5061782;28;20183;-69
2021/09/04 01:41:50;;;;;;;25.37;9.13;;;22.20;98.40;;;;;;5080259;28;20230;-72
2021/09/04 01:44:18;;;;;;;26.23;9.03;;;22.20;97.90;;;;;;5077665;28;20684;-69
2021/09/04 01:46:46;;;;;;;23.83;8.53;;;22.50;97.80;;;;;;5071370;28;20187;-68
2021/09/04 01:49:14;;;;;;;25.13;8.97;;;22.70;97.60;;;;;;5070962;28;20191;-72
2021/09/04 01:51:41;;;;;;;185.07;61.73;;;23.00;97.10;;;;;;5071537;28;20179;-71
2021/09/04 01:54:08;;;;;;;25.00;8.97;;;22.90;97.10;;;;;;5067926;28;20187;-70
2021/09/04 01:56:36;;;;;;;28.33;10.37;;;22.90;97.10;;;;;;5069547;28;20259;-71
2021/09/04 01:59:03;;;;;;;26.70;8.20;;;23.00;96.70;;;;;;5069423;28;20623;-70
2021/09/04 02:01:30;;;;;;;36.50;12.33;;;23.10;96.80;;;;;;5087936;28;20237;-72
2021/09/04 02:03:57;;;;;;;545.80;198.37;;;23.30;96.40;;;;;;5089674;28;20175;-70
2021/09/04 02:06:26;;;;;;;223.57;74.97;;;23.30;96.10;;;;;;5088755;28;20186;-70
2021/09/04 02:08:55;;;;;;;18.97;10.93;;;23.10;96.20;;;;;;5089423;28;20221;-72
2021/09/04 02:11:23;;;;;;;39.00;10.97;;;23.00;96.30;;;;;;5089464;28;20189;-70
2021/09/04 02:13:50;;;;;;;357.47;115.20;;;23.00;96.30;;;;;;5057297;28;20176;-70
2021/09/04 02:16:17;;;;;;;24.60;8.40;;;22.90;96.40;;;;;;5076417;28;20297;-70
2021/09/04 02:18:44;;;;;;;28.43;12.57;;;22.90;96.30;;;;;;5076621;28;20543;-69
2021/09/04 02:21:12;;;;;;;27.73;8.37;;;23.00;96.20;;;;;;5076826;28;20260;-72
2021/09/04 02:23:41;;;;;;;28.87;8.57;;;23.20;96.20;;;;;;5075539;28;20522;-69
2021/09/04 02:26:08;;;;;;;151.77;45.57;;;23.20;95.80;;;;;;5069253;28;20183;-71
2021/09/04 02:28:35;;;;;;;655.17;232.07;;;23.00;95.80;;;;;;5089227;28;20210;-69
2021/09/04 02:31:05;;;;;;;20.87;7.63;;;22.80;96.20;;;;;;5078965;28;20175;-71
2021/09/04 02:33:32;;;;;;;420.73;142.23;;;22.70;95.90;;;;;;5073018;28;20595;-70
2021/09/04 02:35:59;;;;;;;430.73;144.60;;;22.70;96.20;;;;;;5074641;28;20216;-71
2021/09/04 02:38:27;;;;;;;695.40;247.27;;;22.70;96.00;;;;;;5075343;28;20175;-70
2021/09/04 02:40:54;;;;;;;664.30;229.40;;;22.70;96.20;;;;;;5065698;28;20522;-71
2021/09/04 02:43:22;;;;;;;31.87;10.13;;;22.70;95.90;;;;;;5054924;28;20488;-73
2021/09/04 02:45:49;;;;;;;24.83;9.03;;;22.80;96.00;;;;;;5053237;28;20229;-69
2021/09/04 02:48:16;;;;;;;25.20;8.03;;;22.70;96.10;;;;;;5048265;28;20270;-71
2021/09/04 02:50:44;;;;;;;27.33;9.83;;;22.60;96.20;;;;;;5074740;28;20309;-71
2021/09/04 02:53:11;;;;;;;54.17;15.63;;;22.40;96.20;;;;;;5074880;28;20664;-69
2021/09/04 02:55:38;;;;;;;592.83;208.77;;;22.50;96.20;;;;;;5070366;28;20187;-72
2021/09/04 02:58:06;;;;;;;27.10;7.50;;;22.50;96.40;;;;;;5061078;28;20511;-70
2021/09/04 03:00:33;;;;;;;405.50;135.97;;;22.60;96.20;;;;;;5073232;28;20238;-71
2021/09/04 03:03:01;;;;;;;39.70;13.80;;;22.40;96.40;;;;;;5074004;28;20634;-68
2021/09/04 03:05:28;;;;;;;29.60;11.57;;;22.40;96.40;;;;;;5071927;28;20186;-69
2021/09/04 03:07:55;;;;;;;26.47;8.07;;;22.30;96.40;;;;;;5073615;28;20693;-69
2021/09/04 03:10:23;;;;;;;580.30;194.87;;;22.30;96.40;;;;;;5074279;28;20205;-72
2021/09/04 03:12:59;;;;;;;656.23;226.00;;;22.40;96.60;;;;;;5073364;28;20822;-70
2021/09/04 03:15:30;;;;;;;38.40;12.07;;;22.50;96.60;;;;;;5074002;28;20422;-72
2021/09/04 03:17:57;;;;;;;24.30;7.60;;;22.60;96.40;;;;;;5074612;28;20521;-73
2021/09/04 03:20:24;;;;;;;32.50;10.53;;;22.50;96.50;;;;;;5073898;28;20199;-73
2021/09/04 03:22:52;;;;;;;366.40;121.90;;;22.60;96.50;;;;;;5052762;28;20184;-70
2021/09/04 03:25:19;;;;;;;13.87;5.77;;;22.60;96.50;;;;;;5061502;28;20218;-72
2021/09/04 03:27:46;;;;;;;29.60;8.63;;;22.40;96.40;;;;;;5067508;28;20599;-72
2021/09/04 03:30:14;;;;;;;22.77;8.03;;;22.30;96.50;;;;;;5058134;28;20256;-71
2021/09/04 03:32:41;;;;;;;573.30;198.83;;;22.20;96.70;;;;;;5073284;28;20213;-71
2021/09/04 03:35:09;;;;;;;568.97;200.37;;;22.20;96.80;;;;;;5073599;28;20424;-71
2021/09/04 03:37:36;;;;;;;590.57;207.80;;;22.20;96.70;;;;;;5055423;28;20942;-71
2021/09/04 03:40:07;;;;;;;11.63;5.87;;;22.10;96.90;;;;;;5065676;28;20412;-71
2021/09/04 03:42:34;;;;;;;25.57;10.67;;;22.10;96.90;;;;;;5074028;28;20182;-72
2021/09/04 03:45:02;;;;;;;25.10;8.77;;;22.20;97.00;;;;;;5073734;28;20708;-69
2021/09/04 03:47:30;;;;;;;394.37;131.57;;;22.10;97.00;;;;;;5074780;28;20266;-71
2021/09/04 03:49:57;;;;;;;39.63;12.40;;;22.00;97.20;;;;;;5074074;28;20186;-72
2021/09/04 03:52:24;;;;;;;343.33;113.73;;;22.00;97.20;;;;;;5074106;28;20629;-73
2021/09/04 03:54:52;;;;;;;407.13;134.23;;;21.90;97.30;;;;;;5074341;28;20208;-73
2021/09/04 03:57:19;;;;;;;10.43;5.47;;;21.90;97.50;;;;;;5062108;28;20175;-71
2021/09/04 03:59:46;;;;;;;10.83;6.27;;;22.00;97.50;;;;;;5040798;28;20643;-70
2021/09/04 04:02:14;;;;;;;18.87;7.33;;;22.00;97.50;;;;;;5055205;28;20277;-70
2021/09/04 04:04:41;;;;;;;26.33;8.47;;;21.90;97.70;;;;;;5072793;28;20186;-69
2021/09/04 04:07:09;;;;;;;26.83;9.17;;;21.80;97.70;;;;;;5068334;28;20210;-69
2021/09/04 04:09:36;;;;;;;23.90;7.83;;;21.70;98.10;;;;;;5062877;28;20172;-72
2021/09/04 04:12:04;;;;;;;541.60;185.93;;;21.50;99.90;;;;;;5075807;28;20198;-71
2021/09/04 04:14:31;;;;;;;10.70;5.73;;;21.00;99.90;;;;;;5074116;28;20867;-73
2021/09/04 04:16:58;;;;;;;10.17;5.50;;;20.70;99.90;;;;;;5073684;28;20187;-72
2021/09/04 04:19:26;;;;;;;10.53;6.00;;;20.60;99.90;;;;;;5058782;28;20211;-71
2021/09/04 04:21:53;;;;;;;10.70;6.47;;;20.50;99.90;;;;;;5052680;28;20238;-68
2021/09/04 04:24:20;;;;;;;11.43;8.40;;;20.50;99.90;;;;;;5049899;28;20577;-69
2021/09/04 04:26:48;;;;;;;12.43;8.93;;;20.50;99.90;;;;;;5046238;28;20635;-68
2021/09/04 04:29:15;;;;;;;10.27;6.00;;;20.50;99.90;;;;;;5052793;28;20195;-71
2021/09/04 04:31:43;;;;;;;9.90;5.03;;;20.60;99.90;;;;;;5040898;28;20196;-70
2021/09/04 04:34:10;;;;;;;9.30;4.03;;;20.50;99.90;;;;;;5050543;28;20198;-71
2021/09/04 04:36:37;;;;;;;13.70;7.07;;;20.50;99.90;;;;;;5052166;28;20214;-71
2021/09/04 04:39:05;;;;;;;10.23;4.50;;;20.50;99.90;;;;;;5052553;28;20244;-71
2021/09/04 04:41:35;;;;;;;10.57;6.20;;;20.30;99.90;;;;;;5051664;28;20208;-72
2021/09/04 04:44:02;;;;;;;11.57;5.70;;;20.20;99.90;;;;;;5052053;28;20198;-71
2021/09/04 04:46:30;;;;;;;13.07;6.53;;;20.10;99.90;;;;;;5052165;28;20180;-68
2021/09/04 04:48:57;;;;;;;13.30;5.83;;;20.00;99.90;;;;;;5048845;28;20183;-67
2021/09/04 04:51:27;;;;;;;12.40;4.77;;;19.90;99.90;;;;;;5052806;28;20214;-69
2021/09/04 04:53:55;;;;;;;12.93;5.60;;;19.80;99.90;;;;;;5059058;28;20188;-74
2021/09/04 04:56:22;;;;;;;12.73;5.40;;;19.70;99.90;;;;;;5052052;28;20211;-71
2021/09/04 04:58:51;;;;;;;12.80;6.17;;;19.60;99.90;;;;;;5043537;28;20211;-69
2021/09/04 05:01:18;;;;;;;12.77;6.07;;;19.40;99.90;;;;;;5051776;28;20261;-68
2021/09/04 05:03:45;;;;;;;15.97;6.67;;;19.30;99.90;;;;;;5051341;28;20621;-70
2021/09/04 05:06:13;;;;;;;17.53;6.73;;;19.10;99.90;;;;;;5033799;28;20255;-70
2021/09/04 05:08:44;;;;;;;13.50;6.57;;;19.00;99.90;;;;;;5041616;28;20175;-69
2021/09/04 05:11:11;;;;;;;13.13;6.10;;;18.90;99.90;;;;;;5052113;28;20974;-70
2021/09/04 05:13:38;;;;;;;12.77;4.93;;;18.80;99.90;;;;;;5052872;28;20191;-66
2021/09/04 05:16:06;;;;;;;13.50;6.47;;;18.80;99.90;;;;;;5050861;28;20518;-67
2021/09/04 05:18:33;;;;;;;13.73;7.07;;;18.60;99.90;;;;;;5051475;28;20270;-66
2021/09/04 05:21:00;;;;;;;13.53;6.73;;;18.60;99.90;;;;;;5051866;28;20661;-67
2021/09/04 05:23:30;;;;;;;13.63;6.87;;;18.60;99.90;;;;;;5050934;28;20255;-66
2021/09/04 05:25:58;;;;;;;13.17;6.23;;;18.50;99.90;;;;;;5050470;28;20184;-67
2021/09/04 05:28:25;;;;;;;13.80;7.27;;;18.40;99.90;;;;;;5050107;28;20536;-69
2021/09/04 05:30:52;;;;;;;13.10;6.23;;;18.30;99.90;;;;;;5050636;28;20195;-68
2021/09/04 05:33:20;;;;;;;12.90;6.03;;;18.30;99.90;;;;;;5051326;28;20312;-69
2021/09/04 05:35:47;;;;;;;13.67;6.70;;;18.20;99.90;;;;;;5049540;28;20213;-70
2021/09/04 05:38:14;;;;;;;13.50;6.27;;;18.20;99.90;;;;;;5045283;28;20183;-70
2021/09/04 05:40:42;;;;;;;14.63;8.33;;;18.10;99.90;;;;;;5063862;28;20207;-68
2021/09/04 05:43:09;;;;;;;13.60;6.80;;;18.10;99.90;;;;;;5051746;28;20184;-67
2021/09/04 05:45:36;;;;;;;13.63;6.20;;;18.10;99.90;;;;;;5052258;28;20225;-66
2021/09/04 05:48:04;;;;;;;14.70;7.73;;;18.00;99.90;;;;;;5054640;28;20194;-67
2021/09/04 05:50:31;;;;;;;13.60;6.47;;;18.00;99.90;;;;;;5055262;28;20191;-68
2021/09/04 05:52:59;;;;;;;13.97;5.77;;;17.90;99.90;;;;;;5066774;28;20178;-69
2021/09/04 05:55:26;;;;;;;14.73;7.53;;;17.90;99.90;;;;;;5054635;28;20183;-68
2021/09/04 05:57:53;;;;;;;13.63;5.40;;;17.80;99.90;;;;;;5055239;28;20181;-68
2021/09/04 06:00:21;;;;;;;13.70;5.57;;;17.80;99.90;;;;;;5054438;28;20279;-67
2021/09/04 06:02:48;;;;;;;15.10;6.77;;;17.80;99.90;;;;;;5054449;28;20710;-67
2021/09/04 06:05:15;;;;;;;14.10;5.83;;;17.70;99.90;;;;;;5055129;28;20191;-69
2021/09/04 06:07:42;;;;;;;14.97;7.13;;;17.70;99.90;;;;;;5054928;28;21007;-68
2021/09/04 06:10:10;;;;;;;14.50;6.23;;;17.70;99.90;;;;;;5054937;28;20574;-68
2021/09/04 06:12:38;;;;;;;15.27;6.87;;;17.60;99.90;;;;;;5050424;28;20179;-69
2021/09/04 06:15:06;;;;;;;15.27;6.47;;;17.60;99.90;;;;;;5054293;28;20181;-70
2021/09/04 06:17:34;;;;;;;15.00;5.97;;;17.50;99.90;;;;;;5062573;28;20186;-68
2021/09/04 06:20:01;;;;;;;15.00;5.60;;;17.50;99.90;;;;;;5065639;28;20191;-67
2021/09/04 06:22:28;;;;;;;15.40;6.00;;;17.50;99.90;;;;;;5056093;28;20232;-67
2021/09/04 06:24:56;;;;;;;15.87;7.33;;;17.40;99.90;;;;;;5054310;28;20648;-67
2021/09/04 06:27:23;;;;;;;15.33;6.03;;;17.40;99.90;;;;;;5072565;28;20183;-68
2021/09/04 06:29:50;;;;;;;15.07;5.77;;;17.40;99.90;;;;;;5065572;28;20235;-67
2021/09/04 06:32:18;;;;;;;15.83;7.00;;;17.30;99.90;;;;;;5071093;28;20526;-68
2021/09/04 06:34:45;;;;;;;15.57;6.67;;;17.30;99.90;;;;;;5063820;28;20274;-67
2021/09/04 06:37:19;;;;;;;15.37;5.93;;;17.30;99.90;;;;;;5055708;28;20270;-66
2021/09/04 06:39:52;;;;;;;15.20;5.50;;;17.30;99.90;;;;;;5074289;28;20194;-68
2021/09/04 06:42:21;;;;;;;15.47;6.23;;;17.30;99.90;;;;;;5055179;28;20225;-66
2021/09/04 06:44:48;;;;;;;15.10;5.40;;;17.40;99.90;;;;;;5061751;28;20545;-67
2021/09/04 06:47:18;;;;;;;15.37;5.83;;;17.40;99.90;;;;;;5074815;28;20183;-67
2021/09/04 06:49:46;;;;;;;15.37;5.70;;;17.30;99.90;;;;;;5057969;28;20194;-67
2021/09/04 06:52:13;;;;;;;16.00;6.87;;;17.30;99.90;;;;;;5055672;28;20274;-66
2021/09/04 06:54:40;;;;;;;16.23;7.30;;;17.20;99.90;;;;;;5054671;28;20175;-69
2021/09/04 06:57:08;;;;;;;15.90;6.50;;;17.20;99.90;;;;;;5063285;28;20250;-67
2021/09/04 06:59:35;;;;;;;15.50;5.73;;;17.20;99.90;;;;;;5051035;28;20208;-68
2021/09/04 07:02:03;;;;;;;15.43;5.73;;;17.20;99.90;;;;;;5055707;28;20335;-67
2021/09/04 07:04:30;;;;;;;17.00;9.00;;;17.20;99.90;;;;;;5068625;28;20303;-66
2021/09/04 07:07:05;;;;;;;15.40;6.00;;;17.20;99.90;;;;;;5065961;28;20182;-66
2021/09/04 07:09:33;;;;;;;15.30;5.87;;;17.10;99.90;;;;;;5074569;28;20183;-67
2021/09/04 07:12:01;;;;;;;15.77;6.97;;;17.10;99.90;;;;;;5068070;28;20181;-67
2021/09/04 07:14:28;;;;;;;15.50;6.20;;;17.10;99.90;;;;;;5063994;28;20189;-67
2021/09/04 07:16:55;;;;;;;15.63;6.23;;;17.10;99.90;;;;;;5071280;28;20231;-68
2021/09/04 07:19:23;;;;;;;14.20;5.95;;;17.10;99.90;;;;;;5051163;28;20516;-65
2021/09/04 07:21:50;;;;;;;15.17;5.43;;;17.10;99.90;;;;;;5058910;28;20252;-66
2021/09/04 07:24:17;;;;;;;15.90;6.20;;;17.00;99.90;;;;;;5072174;28;20188;-67
2021/09/04 07:26:45;;;;;;;15.97;7.43;;;17.00;99.90;;;;;;5068195;28;20288;-67
2021/09/04 07:29:12;;;;;;;15.40;6.00;;;17.00;99.90;;;;;;5067748;28;20188;-66
2021/09/04 07:31:39;;;;;;;16.03;6.40;;;17.00;99.90;;;;;;5062181;28;20198;-67
2021/09/04 07:34:07;;;;;;;15.17;5.50;;;17.00;99.90;;;;;;5063758;28;20192;-66
2021/09/04 07:36:34;;;;;;;16.67;8.27;;;17.00;99.90;;;;;;5059106;28;20535;-65
2021/09/04 07:39:02;;;;;;;15.53;6.13;;;16.90;99.90;;;;;;5073138;28;20182;-66
2021/09/04 07:41:29;;;;;;;15.73;6.73;;;17.00;99.90;;;;;;5063896;28;20255;-66
2021/09/04 07:43:57;;;;;;;15.13;5.77;;;17.00;99.90;;;;;;5072931;28;20181;-67
2021/09/04 07:46:24;;;;;;;15.17;5.70;;;16.90;99.90;;;;;;5065526;28;20228;-67
2021/09/04 07:48:52;;;;;;;15.53;6.53;;;16.90;99.90;;;;;;5067356;28;20189;-66
2021/09/04 07:51:21;;;;;;;15.13;5.70;;;17.00;99.90;;;;;;5062485;28;20190;-65
2021/09/04 07:53:48;;;;;;;15.77;6.97;;;16.90;99.90;;;;;;5066651;28;20193;-66
2021/09/04 07:56:17;;;;;;;15.30;6.17;;;16.90;99.90;;;;;;5052789;28;20187;-67
2021/09/04 07:58:44;;;;;;;17.63;7.40;;;16.90;99.90;;;;;;5051746;28;20454;-67
2021/09/04 08:01:11;;;;;;;15.93;6.77;;;16.90;99.90;;;;;;5068893;28;20224;-67
2021/09/04 08:03:39;;;;;;;16.43;8.10;;;16.90;99.90;;;;;;5054923;28;20180;-67
2021/09/04 08:06:06;;;;;;;16.40;8.30;;;16.90;99.90;;;;;;5062059;28;20190;-66
2021/09/04 08:08:33;;;;;;;15.83;7.97;;;16.90;99.90;;;;;;5055080;28;20192;-66
2021/09/04 08:11:01;;;;;;;17.63;10.07;;;16.90;99.90;;;;;;5062540;28;20962;-67
2021/09/04 08:13:28;;;;;;;15.33;6.60;;;16.90;99.90;;;;;;5060349;28;20430;-66
2021/09/04 08:15:55;;;;;;;49.63;10.13;;;16.90;99.90;;;;;;5068404;28;20209;-66
2021/09/04 08:18:23;;;;;;;15.57;6.93;;;16.90;99.90;;;;;;5072699;28;20184;-67
2021/09/04 08:20:50;;;;;;;15.57;6.77;;;16.90;99.90;;;;;;5058047;28;20263;-66
2021/09/04 08:23:17;;;;;;;15.17;6.10;;;16.90;99.90;;;;;;5068469;28;20434;-68
2021/09/04 08:25:45;;;;;;;15.23;6.10;;;16.90;99.90;;;;;;5060373;28;20556;-66
2021/09/04 08:28:12;;;;;;;15.57;6.90;;;16.90;99.90;;;;;;5063103;28;20251;-67
2021/09/04 08:30:40;;;;;;;15.63;6.97;;;16.90;99.90;;;;;;5051187;28;20711;-68
2021/09/04 08:33:07;;;;;;;16.90;9.37;;;16.80;99.90;;;;;;5068005;28;20639;-66
2021/09/04 08:35:34;;;;;;;15.77;7.23;;;16.80;99.90;;;;;;5070966;28;20656;-65
2021/09/04 08:38:11;;;;;;;15.10;5.97;;;16.80;99.90;;;;;;5057863;28;20417;-65
2021/09/04 08:40:43;;;;;;;17.70;10.70;;;16.80;99.90;;;;;;5056277;28;20786;-64
2021/09/04 08:43:11;;;;;;;15.17;6.20;;;16.80;99.90;;;;;;5072893;28;20190;-65
2021/09/04 08:45:39;;;;;;;15.13;6.20;;;16.80;99.90;;;;;;5072243;28;20408;-67
2021/09/04 08:48:09;;;;;;;15.60;6.97;;;16.80;99.90;;;;;;5072484;28;20191;-67
2021/09/04 08:50:37;;;;;;;15.97;8.03;;;16.80;99.90;;;;;;5069177;28;20201;-67
2021/09/04 08:53:05;;;;;;;14.93;5.97;;;16.80;99.90;;;;;;5059225;28;20261;-66
2021/09/04 08:55:33;;;;;;;16.73;9.20;;;16.80;99.90;;;;;;5052551;28;20785;-66
2021/09/04 08:58:00;;;;;;;15.07;6.33;;;16.70;99.90;;;;;;5069459;28;20424;-65
2021/09/04 09:00:29;;;;;;;15.43;6.87;;;16.70;99.90;;;;;;5041616;28;20228;-67
2021/09/04 09:02:57;;;;;;;16.20;8.47;;;16.80;99.90;;;;;;5063457;28;20177;-66
2021/09/04 09:05:25;;;;;;;15.17;6.63;;;16.80;99.90;;;;;;5063193;28;20522;-67
2021/09/04 09:07:52;;;;;;;14.97;6.40;;;16.80;99.90;;;;;;5066795;28;20195;-66
2021/09/04 09:10:22;;;;;;;14.63;5.73;;;16.80;99.90;;;;;;5069065;28;20426;-67
2021/09/04 09:12:53;;;;;;;14.63;5.77;;;16.70;99.90;;;;;;5070572;28;20437;-66
2021/09/04 09:15:22;;;;;;;14.87;6.13;;;16.70;99.90;;;;;;5048858;28;20202;-64
2021/09/04 09:18:10;;;;;;;14.50;5.40;;;16.70;99.90;;;;;;5073617;28;20180;-64
2021/09/04 09:20:56;;;;;;;16.17;8.53;;;16.70;99.90;;;;;;5066278;28;20457;-65
2021/09/04 09:23:24;;;;;;;15.37;7.23;;;16.60;99.90;;;;;;5071048;28;20425;-65
2021/09/04 09:25:51;;;;;;;15.57;7.33;;;16.60;99.90;;;;;;5072290;28;20185;-65
2021/09/04 09:28:21;;;;;;;15.10;6.47;;;16.70;99.90;;;;;;5071428;28;20441;-66
2021/09/04 09:30:59;;;;;;;14.57;5.40;;;16.60;99.90;;;;;;5066662;28;20847;-69
2021/09/04 09:33:28;;;;;;;16.50;9.17;;;16.70;99.90;;;;;;5057107;28;20430;-68
2021/09/04 09:35:57;;;;;;;15.80;7.47;;;16.60;99.90;;;;;;5053359;28;20269;-67
2021/09/04 09:38:31;;;;;;;16.83;9.47;;;16.60;99.90;;;;;;5058225;28;20829;-66
2021/09/04 09:41:00;;;;;;;16.07;8.37;;;16.60;99.90;;;;;;5054011;28;20284;-67
2021/09/04 09:43:32;;;;;;;14.80;6.07;;;16.60;99.90;;;;;;5051971;28;20424;-66
2021/09/04 09:46:09;;;;;;;15.10;6.77;;;16.60;99.90;;;;;;5045808;28;20431;-65
2021/09/04 09:48:39;;;;;;;15.73;7.80;;;16.60;99.90;;;;;;5059161;28;20681;-66
2021/09/04 09:51:09;;;;;;;15.77;7.80;;;16.50;99.90;;;;;;5055950;28;20692;-66
2021/09/04 09:53:37;;;;;;;16.03;8.30;;;16.50;99.90;;;;;;5060183;28;20448;-64
2021/09/04 09:56:06;;;;;;;15.27;6.83;;;16.50;99.90;;;;;;5052516;28;20478;-65
2021/09/04 09:58:35;;;;;;;16.80;10.07;;;16.50;99.90;;;;;;5053509;28;20915;-65
2021/09/04 10:01:03;;;;;;;15.47;7.23;;;16.50;99.90;;;;;;5061656;28;20460;-65
2021/09/04 10:03:31;;;;;;;15.67;7.80;;;16.50;99.90;;;;;;5054576;28;20525;-65
2021/09/04 10:06:01;;;;;;;15.87;7.97;;;16.50;99.90;;;;;;5060363;28;20429;-64
2021/09/04 10:08:31;;;;;;;16.93;9.53;;;16.50;99.90;;;;;;5060273;28;20434;-66
2021/09/04 10:11:03;;;;;;;15.97;8.03;;;16.50;99.90;;;;;;5060834;28;20450;-64
2021/09/04 10:13:30;;;;;;;15.70;7.23;;;16.40;99.90;;;;;;5060590;28;20428;-64
2021/09/04 10:15:59;;;;;;;15.67;7.17;;;16.40;99.90;;;;;;5061784;28;20449;-65
2021/09/04 10:18:27;;;;;;;16.07;7.97;;;16.40;99.90;;;;;;5053804;28;20429;-66
2021/09/04 10:21:13;;;;;;;16.00;7.70;;;16.40;99.90;;;;;;5062610;28;21064;-64
2021/09/04 10:23:54;;;;;;;15.80;7.70;;;16.40;99.90;;;;;;5046818;28;20445;-66
2021/09/04 10:26:27;;;;;;;15.67;7.27;;;16.40;99.90;;;;;;5056067;28;20455;-67
2021/09/04 10:29:12;;;;;;;15.57;7.13;;;16.40;99.90;;;;;;5064464;28;20433;-64
2021/09/04 10:31:59;;;;;;;15.07;6.10;;;16.40;99.90;;;;;;5052640;28;20457;-65
2021/09/04 10:34:37;;;;;;;14.90;5.97;;;16.40;99.90;;;;;;5051446;28;20820;-66
2021/09/04 10:37:08;;;;;;;14.80;6.10;;;16.40;99.90;;;;;;5054947;28;20405;-67
2021/09/04 10:39:59;;;;;;;15.10;6.27;;;16.50;99.90;;;;;;5059633;28;20422;-66
2021/09/04 10:42:30;;;;;;;14.67;5.83;;;16.40;99.90;;;;;;5064664;28;20513;-67
2021/09/04 10:45:28;;;;;;;14.57;5.67;;;16.40;99.90;;;;;;5054630;28;20427;-66
2021/09/04 10:47:58;;;;;;;16.60;8.77;;;16.40;99.90;;;;;;5040436;28;20429;-65
2021/09/04 10:50:28;;;;;;;15.43;7.07;;;16.40;99.90;;;;;;5059470;28;20189;-66
2021/09/04 10:53:04;;;;;;;14.87;6.60;;;16.40;99.90;;;;;;5058082;28;20848;-68
2021/09/04 10:55:33;;;;;;;16.33;8.73;;;16.40;99.90;;;;;;5059110;28;20423;-64
2021/09/04 10:58:14;;;;;;;14.53;5.50;;;16.40;99.90;;;;;;5056375;28;20974;-67
2021/09/04 11:00:52;;;;;;;14.97;6.17;;;16.40;99.90;;;;;;5053858;28;20525;-67
2021/09/04 11:03:21;;;;;;;14.73;6.03;;;16.40;99.90;;;;;;5053862;28;20483;-68
2021/09/04 11:06:05;;;;;;;14.67;6.30;;;16.40;99.90;;;;;;5050148;28;20513;-67
2021/09/04 11:08:45;;;;;;;15.70;8.40;;;16.30;99.90;;;;;;5042363;28;20438;-64
2021/09/04 11:11:32;;;;;;;14.60;5.77;;;16.30;99.90;;;;;;5048014;28;20421;-66
2021/09/04 11:14:02;;;;;;;14.27;5.90;;;16.30;99.90;;;;;;5057731;28;20451;-66
2021/09/04 11:16:37;;;;;;;14.63;7.10;;;16.30;99.90;;;;;;5059747;28;20413;-66
2021/09/04 11:19:28;;;;;;;14.77;6.30;;;16.30;99.90;;;;;;5057488;28;20439;-67
2021/09/04 11:22:13;;;;;;;15.63;7.73;;;16.30;99.90;;;;;;5053573;28;20555;-66
2021/09/04 11:24:49;;;;;;;14.77;6.83;;;16.30;99.90;;;;;;5064042;28;20440;-65
2021/09/04 11:27:19;;;;;;;11.90;7.63;;;16.20;99.90;;;;;;5051974;28;20429;-65
2021/09/04 11:29:48;;;;;;;19.83;8.20;;;16.30;99.90;;;;;;5053649;28;20436;-66
2021/09/04 11:32:17;;;;;;;10.77;6.60;;;16.30;99.90;;;;;;5056648;28;20431;-68
2021/09/04 11:34:49;;;;;;;11.67;8.63;;;16.30;99.90;;;;;;5044312;28;20525;-66
2021/09/04 11:37:30;;;;;;;12.23;6.03;;;16.20;99.90;;;;;;5053634;28;20433;-67
2021/09/04 11:40:05;;;;;;;12.80;7.17;;;16.20;99.90;;;;;;5055956;28;20438;-69
2021/09/04 11:42:35;;;;;;;13.53;7.63;;;16.20;99.90;;;;;;5044923;28;20464;-67
2021/09/04 11:45:12;;;;;;;14.40;10.23;;;16.20;99.90;;;;;;5043149;28;20430;-66
2021/09/04 11:47:44;;;;;;;13.17;7.07;;;16.20;99.90;;;;;;5062328;28;20420;-67
2021/09/04 11:50:32;;;;;;;12.30;6.60;;;16.20;99.90;;;;;;5059215;28;20403;-64
2021/09/04 11:53:01;;;;;;;12.73;7.33;;;16.20;99.90;;;;;;5064778;28;20530;-67
2021/09/04 11:55:30;;;;;;;12.40;7.67;;;16.20;99.90;;;;;;5053148;28;20428;-67
2021/09/04 11:58:00;;;;;;;18.93;6.60;;;16.20;99.90;;;;;;5070572;28;20413;-66
2021/09/04 12:00:32;;;;;;;7.73;5.23;;;16.20;99.90;;;;;;5056328;28;20503;-65
2021/09/04 12:03:13;;;;;;;12.17;8.00;;;16.20;99.90;;;;;;5054934;28;20580;-67
2021/09/04 12:05:47;;;;;;;10.03;7.03;;;16.20;99.90;;;;;;5070553;28;20463;-68
2021/09/04 12:08:24;;;;;;;12.27;7.07;;;16.20;99.90;;;;;;5057302;28;20506;-67
2021/09/04 12:10:52;;;;;;;11.93;6.50;;;16.20;99.90;;;;;;5057302;28;20781;-63
2021/09/04 12:13:27;;;;;;;11.87;6.30;;;16.20;99.90;;;;;;5066837;28;20428;-67
2021/09/04 12:16:00;;;;;;;14.23;8.37;;;16.20;99.90;;;;;;5067873;28;20426;-64
2021/09/04 12:18:46;;;;;;;11.83;6.43;;;16.20;99.90;;;;;;5066480;28;20925;-66
2021/09/04 12:21:27;;;;;;;12.83;7.33;;;16.20;99.90;;;;;;5073167;28;20467;-69
2021/09/04 12:24:02;;;;;;;14.70;7.87;;;16.20;99.90;;;;;;5042566;28;20432;-67
2021/09/04 12:26:33;;;;;;;12.30;7.27;;;16.20;99.90;;;;;;5053146;28;20916;-66
2021/09/04 12:29:10;;;;;;;12.57;6.57;;;16.20;99.90;;;;;;5050235;28;20419;-67
2021/09/04 12:31:46;;;;;;;10.50;6.37;;;16.20;99.90;;;;;;5055571;28;20423;-67
2021/09/04 12:34:24;;;;;;;11.00;7.20;;;16.20;99.90;;;;;;5077017;28;20415;-67
2021/09/04 12:36:52;;;;;;;12.03;6.73;;;16.20;99.90;;;;;;5074989;28;20898;-67
2021/09/04 12:39:34;;;;;;;12.07;6.50;;;16.20;99.90;;;;;;5060713;28;20452;-69
2021/09/04 12:42:10;;;;;;;12.17;7.20;;;16.20;99.90;;;;;;5068566;28;20601;-67
2021/09/04 12:44:40;;;;;;;12.37;7.53;;;16.10;99.90;;;;;;5056845;28;20461;-67